createdAt,value
2023-02-21T00:00:09.496Z,4.80
2023-02-21T00:03:23.056Z,5.00
2023-02-21T00:09:36.882Z,5.50
2023-02-21T00:12:56.721Z,5.60
2023-02-21T00:19:50.698Z,4.30
2023-02-21T00:26:12.679Z,5.30
2023-02-21T00:29:04.755Z,4.50
2023-02-21T00:31:59.103Z,4.70
2023-02-21T00:39:18.510Z,5.30
2023-02-21T00:45:33.041Z,5.40
2023-02-21T00:52:34.739Z,4.70
2023-02-21T01:03:09.935Z,3.90
2023-02-21T01:09:23.326Z,5.10
2023-02-21T01:12:44.386Z,6.60
2023-02-21T01:19:24.390Z,5.60
2023-02-21T01:22:22.680Z,4.80
2023-02-21T01:25:17.313Z,5.00
2023-02-21T01:28:36.022Z,5.10
2023-02-21T01:34:45.932Z,5.20
2023-02-21T01:37:44.228Z,5.00
2023-02-21T01:45:08.403Z,3.60
2023-02-21T01:51:54.632Z,4.20
2023-02-21T01:55:16.639Z,3.60
2023-02-21T01:58:16.181Z,3.40
2023-02-21T02:04:26.396Z,5.60
2023-02-21T02:07:22.268Z,5.30
2023-02-21T02:10:28.588Z,6.90
2023-02-21T02:13:53.858Z,10.60
2023-02-21T02:20:33.432Z,11.80
2023-02-21T02:27:49.244Z,12.50
2023-02-21T02:31:01.167Z,15.70
2023-02-21T02:34:21.896Z,13.10
2023-02-21T02:37:00.962Z,16.00
2023-02-21T02:40:23.304Z,19.40
2023-02-21T02:46:12.418Z,29.40
2023-02-21T02:49:35.899Z,32.60
2023-02-21T02:52:16.658Z,36.20
2023-02-21T02:58:35.627Z,33.30
2023-02-21T03:09:03.040Z,25.00
2023-02-21T03:12:50.119Z,27.10
2023-02-21T03:15:25.940Z,26.60
2023-02-21T03:18:06.764Z,27.30
2023-02-21T03:20:41.012Z,24.50
2023-02-21T03:24:27.862Z,23.00
2023-02-21T03:27:06.578Z,19.30
2023-02-21T03:30:33.261Z,17.40
2023-02-21T03:33:07.147Z,16.00
2023-02-21T03:35:41.008Z,18.80
2023-02-21T03:38:15.280Z,20.70
2023-02-21T03:40:50.868Z,17.70
2023-02-21T03:43:32.680Z,21.70
2023-02-21T03:46:09.325Z,17.30
2023-02-21T03:48:42.093Z,21.60
2023-02-21T03:51:45.058Z,18.00
2023-02-21T03:54:20.911Z,17.10
2023-02-21T03:57:24.310Z,17.50
2023-02-21T04:00:02.578Z,19.70
2023-02-21T04:02:58.866Z,17.80
2023-02-21T04:05:32.922Z,18.30
2023-02-21T04:08:08.594Z,23.10
2023-02-21T04:10:51.677Z,22.00
2023-02-21T04:13:26.227Z,22.70
2023-02-21T04:16:27.174Z,31.40
2023-02-21T04:19:03.474Z,33.70
2023-02-21T04:22:03.377Z,37.80
2023-02-21T04:24:36.758Z,36.20
2023-02-21T04:27:41.056Z,37.20
2023-02-21T04:30:15.894Z,37.20
2023-02-21T04:32:50.935Z,33.30
2023-02-21T04:35:24.334Z,37.10
2023-02-21T04:38:03.039Z,34.50
2023-02-21T04:40:37.152Z,29.00
2023-02-21T04:43:10.842Z,30.20
2023-02-21T04:45:48.474Z,32.80
2023-02-21T04:48:47.024Z,30.10
2023-02-21T04:51:27.133Z,26.90
2023-02-21T04:54:04.757Z,30.70
2023-02-21T04:56:39.834Z,28.10
2023-02-21T04:59:17.548Z,30.00
2023-02-21T05:02:14.817Z,30.50
2023-02-21T05:04:52.736Z,23.40
2023-02-21T05:07:29.943Z,25.70
2023-02-21T05:10:43.557Z,24.20
2023-02-21T05:13:42.156Z,26.30
2023-02-21T05:16:23.205Z,24.30
2023-02-21T05:19:45.911Z,26.80
2023-02-21T05:22:21.279Z,29.30
2023-02-21T05:24:54.717Z,26.40
2023-02-21T05:27:31.326Z,30.50
2023-02-21T05:30:06.934Z,30.00
2023-02-21T05:33:07.763Z,27.70
2023-02-21T05:35:44.663Z,29.90
2023-02-21T05:38:18.960Z,24.00
2023-02-21T05:41:42.293Z,32.20
2023-02-21T05:44:22.492Z,33.70
2023-02-21T05:46:59.672Z,26.30
2023-02-21T05:49:34.414Z,25.70
2023-02-21T05:55:09.562Z,26.60
2023-02-21T05:57:45.187Z,28.90
2023-02-21T06:00:24.217Z,25.60
2023-02-21T06:02:57.691Z,21.80
2023-02-21T06:06:00.346Z,22.60
2023-02-21T06:08:40.613Z,18.60
2023-02-21T06:11:14.426Z,22.30
2023-02-21T06:13:47.217Z,20.60
2023-02-21T06:16:45.361Z,20.90
2023-02-21T06:19:19.229Z,21.10
2023-02-21T06:21:52.644Z,23.00
2023-02-21T06:24:30.908Z,22.60
2023-02-21T06:27:05.925Z,23.00
2023-02-21T06:29:39.406Z,21.70
2023-02-21T06:32:13.823Z,22.80
2023-02-21T06:35:14.252Z,20.50
2023-02-21T06:37:48.572Z,22.40
2023-02-21T06:40:22.112Z,16.70
2023-02-21T06:42:57.629Z,18.70
2023-02-21T06:46:18.514Z,16.70
2023-02-21T06:49:39.710Z,16.80
2023-02-21T06:52:16.814Z,23.20
2023-02-21T06:54:49.127Z,27.40
2023-02-21T06:57:46.150Z,24.50
2023-02-21T07:00:20.410Z,14.30
2023-02-21T07:02:53.781Z,22.30
2023-02-21T07:05:27.778Z,22.70
2023-02-21T07:11:47.723Z,22.50
2023-02-21T07:14:21.534Z,21.40
2023-02-21T07:16:56.174Z,23.30
2023-02-21T07:22:27.600Z,28.40
2023-02-21T07:25:04.884Z,31.40
2023-02-21T07:27:40.037Z,29.60
2023-02-21T07:30:15.920Z,34.00
2023-02-21T07:32:48.639Z,37.20
2023-02-21T07:35:24.617Z,36.10
2023-02-21T07:38:05.372Z,28.00
2023-02-21T07:40:37.615Z,25.00
2023-02-21T07:43:59.481Z,19.80
2023-02-21T07:46:37.884Z,18.80
2023-02-21T07:49:40.074Z,27.10
2023-02-21T07:52:13.869Z,23.70
2023-02-21T07:54:48.450Z,26.20
2023-02-21T07:57:27.903Z,21.60
2023-02-21T08:00:49.269Z,15.50
2023-02-21T08:03:22.403Z,15.70
2023-02-21T08:06:20.621Z,14.30
2023-02-21T08:08:56.141Z,10.60
2023-02-21T08:11:29.056Z,10.40
2023-02-21T08:14:10.404Z,8.90
2023-02-21T08:16:46.852Z,9.30
2023-02-21T08:19:22.049Z,9.80
2023-02-21T08:21:58.718Z,10.20
2023-02-21T08:24:37.950Z,8.80
2023-02-21T08:27:13.808Z,9.70
2023-02-21T08:29:56.231Z,9.80
2023-02-21T08:32:30.213Z,8.30
2023-02-21T08:35:11.585Z,10.20
2023-02-21T08:38:11.294Z,10.20
2023-02-21T08:41:10.495Z,10.60
2023-02-21T08:43:45.119Z,10.80
2023-02-21T08:46:21.849Z,9.80
2023-02-21T08:48:56.027Z,11.40
2023-02-21T08:54:43.896Z,14.00
2023-02-21T08:57:23.731Z,16.70
2023-02-21T08:59:57.892Z,13.50
2023-02-21T09:02:33.506Z,13.10
2023-02-21T09:05:10.982Z,16.80
2023-02-21T09:07:50.384Z,17.70
2023-02-21T09:10:24.288Z,18.00
2023-02-21T09:12:58.934Z,19.40
2023-02-21T09:15:57.431Z,17.10
2023-02-21T09:18:32.154Z,9.40
2023-02-21T09:21:33.027Z,11.10
2023-02-21T09:24:36.967Z,11.50
2023-02-21T09:27:09.528Z,12.10
2023-02-21T09:30:10.288Z,12.00
2023-02-21T09:32:42.816Z,10.50
2023-02-21T09:35:16.662Z,11.90
2023-02-21T09:42:01.733Z,12.90
2023-02-21T09:44:37.942Z,16.40
2023-02-21T09:47:41.218Z,16.10
2023-02-21T09:50:17.358Z,11.80
2023-02-21T09:53:17.217Z,10.10
2023-02-21T09:55:53.478Z,9.30
2023-02-21T09:58:34.323Z,9.00
2023-02-21T10:01:44.067Z,7.20
2023-02-21T10:07:23.198Z,10.90
2023-02-21T10:10:05.975Z,14.30
2023-02-21T10:15:49.934Z,21.30
2023-02-21T10:18:30.805Z,20.10
2023-02-21T10:21:35.364Z,19.50
2023-02-21T10:24:16.541Z,18.80
2023-02-21T10:27:18.939Z,15.80
2023-02-21T10:29:55.855Z,19.00
2023-02-21T10:32:33.245Z,17.50
2023-02-21T10:35:06.510Z,14.20
2023-02-21T10:38:11.641Z,9.80
2023-02-21T10:41:35.362Z,9.60
2023-02-21T10:44:16.804Z,10.60
2023-02-21T10:46:53.418Z,9.70
2023-02-21T10:49:54.564Z,10.00
2023-02-21T10:52:28.769Z,9.30
2023-02-21T10:55:05.736Z,11.80
2023-02-21T10:57:42.405Z,14.50
2023-02-21T11:00:48.286Z,14.20
2023-02-21T11:03:29.128Z,9.60
2023-02-21T11:06:05.395Z,8.40
2023-02-21T11:09:06.891Z,9.60
2023-02-21T11:12:29.877Z,8.90
2023-02-21T11:15:24.127Z,9.30
2023-02-21T11:18:16.250Z,10.40
2023-02-21T11:20:53.162Z,8.50
2023-02-21T11:23:28.779Z,7.10
2023-02-21T11:29:11.528Z,6.80
2023-02-21T11:31:44.774Z,7.40
2023-02-21T11:34:21.932Z,7.80
2023-02-21T11:36:55.522Z,7.50
2023-02-21T11:39:42.101Z,8.50
2023-02-21T11:45:33.663Z,13.50
2023-02-21T11:48:13.964Z,12.10
2023-02-21T11:54:16.343Z,10.30
2023-02-21T11:56:55.380Z,11.40
2023-02-21T11:59:44.834Z,12.70
2023-02-21T12:02:39.911Z,12.20
2023-02-21T12:08:51.776Z,19.20
2023-02-21T12:12:13.922Z,13.30
2023-02-21T12:14:59.644Z,8.50
2023-02-21T12:17:47.490Z,8.10
2023-02-21T12:20:53.138Z,6.60
2023-02-21T12:24:01.206Z,7.80
2023-02-21T12:26:47.929Z,8.90
2023-02-21T12:29:42.627Z,9.20
2023-02-21T12:32:45.243Z,10.30
2023-02-21T12:35:50.134Z,7.00
2023-02-21T12:38:56.220Z,8.70
2023-02-21T12:41:49.602Z,11.40
2023-02-21T12:44:26.187Z,10.70
2023-02-21T12:50:05.450Z,8.50
2023-02-21T12:52:45.956Z,6.50
2023-02-21T12:55:48.049Z,6.50
2023-02-21T12:58:25.574Z,9.40
2023-02-21T13:01:02.232Z,8.00
2023-02-21T13:03:53.341Z,14.20
2023-02-21T13:06:31.709Z,12.10
2023-02-21T13:09:59.040Z,8.50
2023-02-21T13:12:39.595Z,19.40
2023-02-21T13:15:20.651Z,15.80
2023-02-21T13:18:47.565Z,12.30
2023-02-21T13:21:55.922Z,14.70
2023-02-21T13:25:09.801Z,13.10
2023-02-21T13:27:57.959Z,6.40
2023-02-21T13:31:10.829Z,5.50
2023-02-21T13:34:14.332Z,7.30
2023-02-21T13:36:51.874Z,7.30
2023-02-21T13:39:33.466Z,7.10
2023-02-21T13:42:09.828Z,7.60
2023-02-21T13:44:51.766Z,5.40
2023-02-21T13:47:26.099Z,6.50
2023-02-21T13:54:13.818Z,7.40
2023-02-21T13:57:30.156Z,9.70
2023-02-21T14:00:52.240Z,48.90
2023-02-21T14:04:04.838Z,29.90
2023-02-21T14:10:05.408Z,6.70
2023-02-21T14:13:29.108Z,8.20
2023-02-21T14:16:35.823Z,7.40
2023-02-21T14:19:11.565Z,5.10
2023-02-21T14:22:36.460Z,5.60
2023-02-21T14:26:04.504Z,10.80
2023-02-21T14:29:13.434Z,11.30
2023-02-21T14:32:00.044Z,9.90
2023-02-21T14:35:27.670Z,14.90
2023-02-21T14:38:08.679Z,15.40
2023-02-21T14:40:49.497Z,7.50
2023-02-21T14:44:00.174Z,11.10
2023-02-21T14:46:56.522Z,10.20
2023-02-21T14:50:35.041Z,8.30
2023-02-21T14:57:19.311Z,9.30
2023-02-21T15:00:19.042Z,9.20
2023-02-21T15:02:58.558Z,9.40
2023-02-21T15:05:37.628Z,10.40
2023-02-21T15:08:43.371Z,16.10
2023-02-21T15:14:29.065Z,12.30
2023-02-21T15:17:15.020Z,16.60
2023-02-21T15:19:50.357Z,17.30
2023-02-21T15:22:26.680Z,16.50
2023-02-21T15:25:20.442Z,17.40
2023-02-21T15:28:06.270Z,15.60
2023-02-21T15:31:33.161Z,18.20
2023-02-21T15:34:29.946Z,13.50
2023-02-21T15:37:10.162Z,12.40
2023-02-21T15:39:46.677Z,10.90
2023-02-21T15:42:26.281Z,8.20
2023-02-21T15:45:29.451Z,10.50
2023-02-21T15:48:06.398Z,10.60
2023-02-21T15:50:44.922Z,44.70
2023-02-21T15:53:22.683Z,22.00
2023-02-21T15:59:48.860Z,8.80
2023-02-21T16:02:49.625Z,12.60
2023-02-21T16:05:31.506Z,10.20
2023-02-21T16:08:08.202Z,9.60
2023-02-21T16:10:44.208Z,10.60
2023-02-21T16:13:46.038Z,14.60
2023-02-21T16:16:20.774Z,11.90
2023-02-21T16:22:15.813Z,9.40
2023-02-21T16:25:16.704Z,15.80
2023-02-21T16:28:47.290Z,9.30
2023-02-21T16:31:30.736Z,10.30
2023-02-21T16:34:07.890Z,10.40
2023-02-21T16:36:43.078Z,9.90
2023-02-21T16:39:19.496Z,12.00
2023-02-21T16:41:52.615Z,12.10
2023-02-21T16:44:29.268Z,11.90
2023-02-21T16:47:28.180Z,12.00
2023-02-21T16:50:29.046Z,13.90
2023-02-21T16:53:04.779Z,16.70
2023-02-21T16:56:04.620Z,20.30
2023-02-21T16:58:40.748Z,23.40
2023-02-21T17:04:49.005Z,28.20
2023-02-21T17:07:47.088Z,25.70
2023-02-21T17:10:25.161Z,32.40
2023-02-21T17:12:57.272Z,35.80
2023-02-21T17:15:32.711Z,48.00
2023-02-21T17:18:07.317Z,39.00
2023-02-21T17:21:08.956Z,33.90
2023-02-21T17:26:57.037Z,27.50
2023-02-21T17:29:55.242Z,25.20
2023-02-21T17:32:30.972Z,22.60
2023-02-21T17:35:30.115Z,32.20
2023-02-21T17:38:12.773Z,31.00
2023-02-21T17:40:48.177Z,28.60
2023-02-21T17:47:09.728Z,19.80
2023-02-21T17:50:11.013Z,19.20
2023-02-21T17:52:46.861Z,24.80
2023-02-21T17:58:25.698Z,33.50
2023-02-21T18:01:00.296Z,22.10
2023-02-21T18:04:27.477Z,20.20
2023-02-21T18:07:52.164Z,20.30
2023-02-21T18:10:28.190Z,19.00
2023-02-21T18:13:04.268Z,23.60
2023-02-21T18:16:04.463Z,18.00
2023-02-21T18:18:41.484Z,15.70
2023-02-21T18:21:23.018Z,14.60
2023-02-21T18:24:03.085Z,11.70
2023-02-21T18:26:41.656Z,15.50
2023-02-21T18:29:38.136Z,10.90
2023-02-21T18:35:21.719Z,13.20
2023-02-21T18:38:21.613Z,16.10
2023-02-21T18:44:25.596Z,23.40
2023-02-21T18:47:06.489Z,18.60
2023-02-21T18:52:45.462Z,22.00
2023-02-21T18:55:18.755Z,16.30
2023-02-21T18:57:53.151Z,16.80
2023-02-21T19:00:27.576Z,17.80
2023-02-21T19:03:06.687Z,18.20
2023-02-21T19:05:42.065Z,17.10
2023-02-21T19:08:22.128Z,20.70
2023-02-21T19:11:04.686Z,20.20
2023-02-21T19:13:40.645Z,21.10
2023-02-21T19:16:17.025Z,15.70
2023-02-21T19:19:16.996Z,21.70
2023-02-21T19:21:54.654Z,50.70
2023-02-21T19:24:30.669Z,24.00
2023-02-21T19:27:05.172Z,19.50
2023-02-21T19:30:30.263Z,20.00
2023-02-21T19:33:05.650Z,19.50
2023-02-21T19:42:07.318Z,25.50
2023-02-21T19:44:44.292Z,30.10
2023-02-21T19:48:08.234Z,70.70
2023-02-21T19:51:56.814Z,84.50
2023-02-21T19:54:31.074Z,29.60
2023-02-21T19:57:53.269Z,26.90
2023-02-21T20:00:30.278Z,26.10
2023-02-21T20:03:09.151Z,28.60
2023-02-21T20:05:42.870Z,27.00
2023-02-21T20:08:20.891Z,34.20
2023-02-21T20:10:56.102Z,32.10
2023-02-21T20:13:33.251Z,45.00
2023-02-21T20:16:09.827Z,39.30
2023-02-21T20:18:42.683Z,37.30
2023-02-21T20:22:05.374Z,39.90
2023-02-21T20:25:09.601Z,46.10
2023-02-21T20:31:42.528Z,70.50
2023-02-21T20:34:26.097Z,53.20
2023-02-21T20:37:04.779Z,61.50
2023-02-21T20:39:39.101Z,60.40
2023-02-21T20:42:38.485Z,47.50
2023-02-21T20:45:18.937Z,46.30
2023-02-21T20:47:54.676Z,56.00
2023-02-21T20:50:27.789Z,56.30
2023-02-21T20:53:02.963Z,57.30
2023-02-21T20:56:29.293Z,57.90
2023-02-21T20:59:30.023Z,68.00
2023-02-21T21:02:35.094Z,82.40
2023-02-21T21:05:34.819Z,86.90
2023-02-21T21:08:09.051Z,75.10
2023-02-21T21:10:53.254Z,61.30
2023-02-21T21:13:28.093Z,60.90
2023-02-21T21:16:05.227Z,65.90
2023-02-21T21:18:40.172Z,73.60
2023-02-21T21:21:18.735Z,71.80
2023-02-21T21:23:54.664Z,67.90
2023-02-21T21:26:29.893Z,64.00
2023-02-21T21:29:07.542Z,52.30
2023-02-21T21:31:54.445Z,48.50
2023-02-21T21:34:40.021Z,48.00
2023-02-21T21:37:19.207Z,46.20
2023-02-21T21:39:55.053Z,44.50
2023-02-21T21:42:34.846Z,42.80
2023-02-21T21:45:32.939Z,40.20
2023-02-21T21:48:33.897Z,48.10
2023-02-21T21:51:09.534Z,49.90
2023-02-21T21:57:03.719Z,48.90
2023-02-21T22:00:01.809Z,41.60
2023-02-21T22:02:38.997Z,42.70
2023-02-21T22:05:34.867Z,36.50
2023-02-21T22:08:12.728Z,44.00
2023-02-21T22:10:48.345Z,48.60
2023-02-21T22:13:53.375Z,48.70
2023-02-21T22:16:27.676Z,46.80
2023-02-21T22:19:02.167Z,98.10
2023-02-21T22:25:27.992Z,77.20
2023-02-21T22:28:30.357Z,68.10
2023-02-21T22:31:35.659Z,50.00
2023-02-21T22:34:10.175Z,51.20
2023-02-21T22:37:13.236Z,49.40
2023-02-21T22:39:47.694Z,46.10
2023-02-21T22:42:50.399Z,47.80
2023-02-21T22:45:50.464Z,44.30
2023-02-21T22:48:26.959Z,41.60
2023-02-21T22:51:28.140Z,44.70
2023-02-21T22:54:02.577Z,43.70
2023-02-21T22:57:25.039Z,41.40
2023-02-21T23:00:45.952Z,42.90
2023-02-21T23:03:22.068Z,42.90
2023-02-21T23:06:03.387Z,41.50
2023-02-21T23:11:40.404Z,41.00
2023-02-21T23:14:17.177Z,40.80
2023-02-21T23:17:17.709Z,42.00
2023-02-21T23:20:38.822Z,41.80
2023-02-21T23:23:15.967Z,43.90
2023-02-21T23:25:49.770Z,37.70
2023-02-21T23:28:28.528Z,40.20
2023-02-21T23:40:28.203Z,39.20
2023-02-21T23:43:05.004Z,39.80
2023-02-21T23:45:48.355Z,41.80
2023-02-21T23:48:31.777Z,39.40
2023-02-21T23:51:58.154Z,39.50
2023-02-21T23:54:33.495Z,40.40
